createdAt,value
2022-09-15T00:01:05.196Z,16.00
2022-09-15T00:03:32.127Z,22.00
2022-09-15T00:05:58.943Z,24.50
2022-09-15T00:08:25.853Z,26.00
2022-09-15T00:11:04.710Z,25.00
2022-09-15T00:13:32.138Z,25.00
2022-09-15T00:15:58.919Z,20.00
2022-09-15T00:18:25.818Z,17.50
2022-09-15T00:20:52.749Z,21.00
2022-09-15T00:23:19.572Z,27.00
2022-09-15T00:25:52.697Z,20.25
2022-09-15T00:28:21.614Z,17.00
2022-09-15T00:30:51.817Z,20.50
2022-09-15T00:33:28.083Z,17.75
2022-09-15T00:35:55.097Z,18.00
2022-09-15T00:38:21.914Z,18.50
2022-09-15T00:40:54.708Z,19.00
2022-09-15T00:43:42.332Z,17.00
2022-09-15T00:46:10.119Z,24.50
2022-09-15T00:48:43.678Z,25.00
2022-09-15T00:51:13.837Z,20.00
2022-09-15T00:53:41.834Z,18.00
2022-09-15T00:56:11.530Z,24.25
2022-09-15T00:58:43.283Z,24.25
2022-09-15T01:01:31.315Z,19.50
2022-09-15T01:03:58.659Z,20.75
2022-09-15T01:06:45.679Z,18.00
2022-09-15T01:09:34.972Z,17.00
2022-09-15T01:12:02.717Z,20.00
2022-09-15T01:14:45.136Z,25.00
2022-09-15T01:17:14.992Z,25.75
2022-09-15T01:19:56.891Z,27.00
2022-09-15T01:22:51.912Z,28.50
2022-09-15T01:26:04.760Z,27.00
2022-09-15T01:29:16.237Z,20.50
2022-09-15T01:32:09.729Z,17.25
2022-09-15T01:34:44.634Z,17.00
2022-09-15T01:37:20.395Z,16.00
2022-09-15T01:39:52.773Z,22.75
2022-09-15T01:42:23.274Z,23.50
2022-09-15T01:44:58.153Z,22.00
2022-09-15T01:47:29.116Z,20.50
2022-09-15T01:50:03.267Z,20.75
2022-09-15T01:52:30.923Z,23.00
2022-09-15T01:55:02.380Z,25.25
2022-09-15T01:57:29.431Z,26.00
2022-09-15T01:59:56.826Z,21.25
2022-09-15T02:02:35.754Z,18.00
2022-09-15T02:05:10.299Z,24.00
2022-09-15T02:07:53.247Z,26.00
2022-09-15T02:11:14.185Z,26.00
2022-09-15T02:14:07.076Z,19.50
2022-09-15T02:16:35.928Z,19.00
2022-09-15T02:19:14.763Z,18.00
2022-09-15T02:21:53.966Z,21.00
2022-09-15T02:24:26.683Z,19.00
2022-09-15T02:26:54.268Z,26.50
2022-09-15T02:29:23.920Z,22.75
2022-09-15T02:31:54.116Z,17.50
2022-09-15T02:34:34.694Z,19.00
2022-09-15T02:37:03.288Z,17.00
2022-09-15T02:39:34.375Z,23.25
2022-09-15T02:42:02.313Z,23.00
2022-09-15T02:44:30.673Z,24.00
2022-09-15T02:47:01.511Z,20.25
2022-09-15T02:49:28.516Z,22.75
2022-09-15T02:51:55.667Z,18.25
2022-09-15T02:54:22.578Z,24.50
2022-09-15T02:56:49.311Z,20.00
2022-09-15T02:59:16.104Z,22.25
2022-09-15T03:01:42.945Z,19.50
2022-09-15T03:04:09.784Z,21.00
2022-09-15T03:06:36.579Z,24.50
2022-09-15T03:09:08.100Z,25.00
2022-09-15T03:11:36.189Z,25.00
2022-09-15T03:14:05.634Z,25.00
2022-09-15T03:16:34.762Z,26.00
2022-09-15T03:19:02.151Z,21.00
2022-09-15T03:21:30.621Z,18.00
2022-09-15T03:24:00.547Z,18.00
2022-09-15T03:26:41.963Z,26.00
2022-09-15T03:29:08.821Z,30.00
2022-09-15T03:31:35.652Z,28.00
2022-09-15T03:34:02.532Z,29.00
2022-09-15T03:36:29.565Z,28.00
2022-09-15T03:38:57.637Z,27.00
2022-09-15T03:41:25.689Z,23.75
2022-09-15T03:43:52.528Z,28.25
2022-09-15T03:46:19.506Z,28.00
2022-09-15T03:48:46.640Z,20.75
2022-09-15T03:51:14.423Z,19.00
2022-09-15T03:53:42.499Z,20.25
2022-09-15T03:56:11.413Z,25.00
2022-09-15T03:58:38.456Z,28.50
2022-09-15T04:01:08.334Z,27.00
2022-09-15T04:03:38.794Z,25.50
2022-09-15T04:06:10.365Z,29.00
2022-09-15T04:08:37.623Z,28.00
2022-09-15T04:11:09.895Z,28.50
2022-09-15T04:13:38.902Z,23.50
2022-09-15T04:16:08.862Z,19.75
2022-09-15T04:18:36.162Z,20.00
2022-09-15T04:21:13.822Z,23.50
2022-09-15T04:23:41.721Z,25.00
2022-09-15T04:26:17.287Z,29.00
2022-09-15T04:28:44.262Z,23.00
2022-09-15T04:31:16.093Z,21.00
2022-09-15T04:33:44.134Z,19.00
2022-09-15T04:36:16.941Z,26.50
2022-09-15T04:38:44.577Z,23.00
2022-09-15T04:41:12.458Z,28.75
2022-09-15T04:43:39.381Z,25.00
2022-09-15T04:46:06.892Z,25.50
2022-09-15T04:48:33.817Z,23.75
2022-09-15T04:51:02.120Z,19.00
2022-09-15T04:53:29.426Z,20.00
2022-09-15T04:56:10.074Z,23.00
2022-09-15T04:58:39.073Z,21.00
2022-09-15T05:01:17.858Z,22.75
2022-09-15T05:03:45.669Z,27.50
2022-09-15T05:06:15.834Z,23.00
2022-09-15T05:08:43.224Z,27.50
2022-09-15T05:11:12.139Z,23.25
2022-09-15T05:13:40.047Z,25.75
2022-09-15T05:16:08.892Z,32.00
2022-09-15T05:18:39.822Z,33.50
2022-09-15T05:21:08.295Z,32.25
2022-09-15T05:23:36.763Z,31.75
2022-09-15T05:26:06.879Z,24.75
2022-09-15T05:28:35.549Z,21.50
2022-09-15T05:31:07.172Z,23.75
2022-09-15T05:33:34.991Z,22.00
2022-09-15T05:36:02.053Z,25.75
2022-09-15T05:38:32.956Z,26.00
2022-09-15T05:41:08.145Z,21.00
2022-09-15T05:43:36.864Z,22.00
2022-09-15T05:46:04.649Z,26.00
2022-09-15T05:48:31.548Z,21.75
2022-09-15T05:50:58.457Z,25.75
2022-09-15T05:53:26.321Z,25.75
2022-09-15T05:55:57.827Z,30.75
2022-09-15T05:58:25.769Z,30.00
2022-09-15T06:00:53.770Z,24.00
2022-09-15T06:03:22.449Z,26.25
2022-09-15T06:05:58.475Z,24.00
2022-09-15T06:08:29.989Z,21.00
2022-09-15T06:11:19.848Z,25.00
2022-09-15T06:13:47.304Z,30.50
2022-09-15T06:16:16.802Z,32.50
2022-09-15T06:18:43.685Z,31.75
2022-09-15T06:21:17.150Z,29.00
2022-09-15T06:23:49.915Z,24.00
2022-09-15T06:26:19.311Z,22.00
2022-09-15T06:29:07.746Z,27.50
2022-09-15T06:31:35.068Z,28.50
2022-09-15T06:34:02.244Z,25.00
2022-09-15T06:36:48.747Z,22.25
2022-09-15T06:39:15.574Z,20.00
2022-09-15T06:42:01.327Z,27.50
2022-09-15T06:44:29.489Z,24.00
2022-09-15T06:47:09.382Z,20.00
2022-09-15T06:49:36.426Z,24.50
2022-09-15T06:52:03.253Z,28.50
2022-09-15T06:54:30.108Z,23.75
2022-09-15T06:56:57.047Z,25.25
2022-09-15T06:59:23.954Z,26.50
2022-09-15T07:01:54.515Z,23.25
2022-09-15T07:04:22.277Z,21.00
2022-09-15T07:06:49.310Z,25.50
2022-09-15T07:09:16.204Z,31.00
2022-09-15T07:11:43.101Z,31.50
2022-09-15T07:14:12.451Z,27.50
2022-09-15T07:16:39.355Z,27.75
2022-09-15T07:19:34.289Z,29.00
2022-09-15T07:22:01.144Z,30.00
2022-09-15T07:24:27.930Z,31.00
2022-09-15T07:26:54.799Z,32.00
2022-09-15T07:29:21.603Z,32.00
2022-09-15T07:31:48.640Z,30.00
2022-09-15T07:34:15.492Z,28.50
2022-09-15T07:36:42.344Z,28.75
2022-09-15T07:39:10.182Z,32.75
2022-09-15T07:41:38.350Z,33.50
2022-09-15T07:44:07.330Z,30.00
2022-09-15T07:46:37.408Z,32.25
2022-09-15T07:49:04.469Z,32.00
2022-09-15T07:51:31.375Z,30.00
2022-09-15T07:53:58.389Z,32.00
2022-09-15T07:56:27.605Z,25.00
2022-09-15T07:58:54.388Z,27.00
2022-09-15T08:01:21.308Z,22.25
2022-09-15T08:03:51.200Z,25.00
2022-09-15T08:06:23.344Z,22.75
2022-09-15T08:08:50.721Z,28.75
2022-09-15T08:11:20.112Z,32.50
2022-09-15T08:13:48.581Z,28.50
2022-09-15T08:16:18.206Z,31.00
2022-09-15T08:18:45.570Z,27.00
2022-09-15T08:21:34.573Z,27.75
2022-09-15T08:24:01.601Z,25.00
2022-09-15T08:26:29.913Z,23.00
2022-09-15T08:28:57.356Z,22.00
2022-09-15T08:31:24.569Z,26.25
2022-09-15T08:33:54.101Z,26.25
2022-09-15T08:36:21.365Z,28.00
2022-09-15T08:38:48.241Z,26.00
2022-09-15T08:41:23.723Z,25.00
2022-09-15T08:44:07.617Z,24.00
2022-09-15T08:46:41.026Z,30.75
2022-09-15T08:49:35.560Z,27.00
2022-09-15T08:52:16.156Z,27.75
2022-09-15T08:54:57.103Z,28.00
2022-09-15T08:57:25.513Z,28.75
2022-09-15T08:59:53.785Z,33.25
2022-09-15T09:02:49.903Z,29.75
2022-09-15T09:05:47.655Z,32.75
2022-09-15T09:08:17.247Z,28.00
2022-09-15T09:11:04.288Z,25.00
2022-09-15T09:14:12.862Z,26.50
2022-09-15T09:16:39.654Z,27.50
2022-09-15T09:19:33.522Z,28.00
2022-09-15T09:22:09.449Z,29.50
2022-09-15T09:24:42.404Z,29.25
2022-09-15T09:27:36.908Z,27.75
2022-09-15T09:30:13.026Z,34.50
2022-09-15T09:33:17.312Z,36.00
2022-09-15T09:35:49.340Z,33.00
2022-09-15T09:38:26.173Z,33.00
2022-09-15T09:40:53.207Z,32.00
2022-09-15T09:43:20.531Z,28.00
2022-09-15T09:45:47.542Z,27.00
2022-09-15T09:48:23.826Z,29.00
2022-09-15T09:50:51.090Z,28.25
2022-09-15T09:53:44.236Z,25.50
2022-09-15T09:56:14.155Z,29.00
2022-09-15T09:58:40.972Z,32.00
2022-09-15T10:01:16.846Z,29.00
2022-09-15T10:03:44.211Z,27.00
2022-09-15T10:06:16.022Z,28.00
2022-09-15T10:08:56.454Z,31.25
2022-09-15T10:11:40.174Z,28.00
2022-09-15T10:14:07.086Z,32.00
2022-09-15T10:16:34.117Z,28.00
2022-09-15T10:19:01.531Z,32.50
2022-09-15T10:21:29.721Z,34.00
2022-09-15T10:23:56.588Z,34.75
2022-09-15T10:26:33.767Z,34.00
2022-09-15T10:29:18.520Z,36.75
2022-09-15T10:31:46.368Z,35.00
2022-09-15T10:34:26.835Z,34.00
2022-09-15T10:37:01.636Z,32.00
2022-09-15T10:39:44.088Z,31.00
2022-09-15T10:42:15.536Z,29.00
2022-09-15T10:45:07.048Z,29.00
2022-09-15T10:48:02.987Z,28.00
2022-09-15T10:50:54.120Z,31.75
2022-09-15T10:53:57.517Z,33.50
2022-09-15T10:56:36.964Z,31.00
2022-09-15T10:59:35.996Z,28.00
2022-09-15T11:02:24.455Z,34.00
2022-09-15T11:05:09.436Z,31.00
2022-09-15T11:07:42.000Z,34.75
2022-09-15T11:10:32.214Z,34.75
2022-09-15T11:13:04.681Z,32.00
2022-09-15T11:15:43.584Z,38.25
2022-09-15T11:18:33.171Z,35.00
2022-09-15T11:21:24.493Z,33.00
2022-09-15T11:24:07.567Z,31.00
2022-09-15T11:26:43.863Z,33.00
2022-09-15T11:29:33.748Z,35.50
2022-09-15T11:32:06.641Z,37.00
2022-09-15T11:34:41.244Z,35.00
2022-09-15T11:37:47.745Z,33.00
2022-09-15T11:40:42.002Z,33.75
2022-09-15T11:43:24.150Z,36.00
2022-09-15T11:45:58.161Z,36.00
2022-09-15T11:48:46.293Z,33.00
2022-09-15T11:51:19.928Z,36.00
2022-09-15T11:54:13.168Z,35.00
2022-09-15T11:56:55.470Z,33.75
2022-09-15T11:59:50.509Z,34.50
2022-09-15T12:02:24.772Z,36.00
2022-09-15T12:05:15.008Z,36.50
2022-09-15T12:08:04.539Z,36.75
2022-09-15T12:10:39.730Z,36.00
2022-09-15T12:13:11.305Z,37.00
2022-09-15T12:15:38.478Z,32.25
2022-09-15T12:18:34.522Z,35.00
2022-09-15T12:21:12.405Z,35.00
2022-09-15T12:23:45.653Z,33.25
2022-09-15T12:26:20.100Z,31.00
2022-09-15T12:28:46.898Z,33.75
2022-09-15T12:31:31.638Z,32.00
2022-09-15T12:34:18.110Z,33.75
2022-09-15T12:36:49.222Z,34.25
2022-09-15T12:39:36.638Z,32.00
2022-09-15T12:42:22.015Z,33.00
2022-09-15T12:45:02.047Z,34.75
2022-09-15T12:47:53.589Z,35.75
2022-09-15T12:50:20.432Z,32.25
2022-09-15T12:53:13.389Z,30.00
2022-09-15T12:55:50.713Z,32.00
2022-09-15T12:58:27.447Z,32.00
2022-09-15T13:01:23.307Z,32.00
2022-09-15T13:03:50.120Z,32.00
2022-09-15T13:06:16.839Z,35.50
2022-09-15T13:08:48.052Z,33.50
2022-09-15T13:11:27.126Z,30.00
2022-09-15T13:14:19.418Z,29.00
2022-09-15T13:17:04.362Z,28.50
2022-09-15T13:19:34.237Z,34.00
2022-09-15T13:22:16.106Z,34.50
2022-09-15T13:24:59.127Z,33.50
2022-09-15T13:27:33.300Z,32.00
2022-09-15T13:30:18.677Z,33.75
2022-09-15T13:32:49.972Z,35.50
2022-09-15T13:35:28.121Z,36.00
2022-09-15T13:38:26.271Z,36.75
2022-09-15T13:41:33.460Z,36.25
2022-09-15T13:44:15.168Z,37.00
2022-09-15T13:47:08.301Z,34.00
2022-09-15T13:49:45.644Z,35.25
2022-09-15T13:52:18.389Z,33.75
2022-09-15T13:55:16.361Z,34.00
2022-09-15T14:00:53.182Z,34.00
2022-09-15T14:03:42.497Z,34.00
2022-09-15T14:06:37.017Z,34.00
2022-09-15T14:09:16.631Z,33.00
2022-09-15T14:12:07.877Z,32.75
2022-09-15T14:14:42.680Z,35.00
2022-09-15T14:17:23.251Z,36.00
2022-09-15T14:19:53.553Z,38.75
2022-09-15T14:22:20.518Z,34.00
2022-09-15T14:24:50.887Z,36.00
2022-09-15T14:27:44.652Z,36.50
2022-09-15T14:30:37.910Z,37.25
2022-09-15T14:33:04.884Z,34.00
2022-09-15T14:35:37.493Z,32.25
2022-09-15T14:38:06.908Z,34.00
2022-09-15T14:40:38.858Z,35.00
2022-09-15T14:43:26.223Z,38.25
2022-09-15T14:46:05.781Z,40.00
2022-09-15T14:48:41.910Z,39.50
2022-09-15T14:51:17.356Z,40.00
2022-09-15T14:53:49.869Z,42.00
2022-09-15T14:56:22.860Z,43.75
2022-09-15T14:59:01.107Z,44.00
2022-09-15T15:01:52.477Z,42.00
2022-09-15T15:04:22.403Z,41.00
2022-09-15T15:07:13.850Z,40.50
2022-09-15T15:09:59.757Z,39.00
2022-09-15T15:12:37.309Z,40.00
2022-09-15T15:15:06.026Z,39.50
2022-09-15T15:17:53.189Z,40.00
2022-09-15T15:20:26.946Z,41.00
2022-09-15T15:23:14.784Z,40.00
2022-09-15T15:26:02.465Z,43.25
2022-09-15T15:28:36.391Z,41.00
2022-09-15T15:31:20.840Z,41.75
2022-09-15T15:33:53.928Z,40.75
2022-09-15T15:36:23.603Z,38.25
2022-09-15T15:38:56.248Z,37.75
2022-09-15T15:41:29.347Z,36.00
2022-09-15T15:44:01.105Z,35.00
2022-09-15T15:46:47.026Z,37.50
2022-09-15T15:49:14.160Z,44.75
2022-09-15T15:51:41.713Z,41.00
2022-09-15T15:54:08.875Z,39.00
2022-09-15T15:56:37.919Z,37.75
2022-09-15T15:59:05.509Z,37.75
2022-09-15T16:01:38.656Z,37.00
2022-09-15T16:04:05.503Z,35.00
2022-09-15T16:06:36.140Z,34.00
2022-09-15T16:09:04.250Z,33.50
2022-09-15T16:11:34.066Z,33.50
2022-09-15T16:14:01.017Z,34.00
2022-09-15T16:16:35.298Z,33.00
2022-09-15T16:19:02.293Z,32.00
2022-09-15T16:21:39.436Z,33.00
2022-09-15T16:24:12.760Z,33.00
2022-09-15T16:27:01.998Z,33.00
2022-09-15T16:29:29.380Z,34.00
2022-09-15T16:32:07.488Z,38.00
2022-09-15T16:34:54.940Z,32.50
2022-09-15T16:37:22.213Z,34.00
2022-09-15T16:39:49.110Z,32.00
2022-09-15T16:42:15.975Z,33.00
2022-09-15T16:44:42.857Z,35.00
2022-09-15T16:47:09.708Z,37.00
2022-09-15T16:49:36.602Z,36.00
2022-09-15T16:52:04.397Z,31.50
2022-09-15T16:54:31.331Z,32.00
2022-09-15T16:56:58.430Z,32.75
2022-09-15T16:59:25.301Z,30.25
2022-09-15T17:01:55.271Z,33.00
2022-09-15T17:04:22.286Z,30.00
2022-09-15T17:06:49.233Z,30.00
2022-09-15T17:09:15.968Z,35.00
2022-09-15T17:11:42.877Z,37.00
2022-09-15T17:14:15.086Z,34.00
2022-09-15T17:16:44.898Z,33.25
2022-09-15T17:19:11.662Z,30.00
2022-09-15T17:21:38.531Z,34.00
2022-09-15T17:24:05.729Z,30.25
2022-09-15T17:26:32.979Z,35.50
2022-09-15T17:28:59.846Z,38.00
2022-09-15T17:31:26.707Z,32.00
2022-09-15T17:33:53.880Z,35.00
2022-09-15T17:36:25.585Z,35.00
2022-09-15T17:38:53.773Z,32.50
2022-09-15T17:41:21.944Z,33.00
2022-09-15T17:43:49.214Z,34.50
2022-09-15T17:46:15.995Z,32.00
2022-09-15T17:48:46.530Z,37.25
2022-09-15T17:51:16.041Z,34.00
2022-09-15T17:53:48.975Z,35.25
2022-09-15T17:56:16.314Z,35.50
2022-09-15T17:58:43.347Z,32.00
2022-09-15T18:01:14.767Z,35.75
2022-09-15T18:03:44.271Z,35.00
2022-09-15T18:06:14.131Z,37.00
2022-09-15T18:08:41.402Z,37.00
2022-09-15T18:11:10.787Z,33.25
2022-09-15T18:13:46.335Z,35.50
2022-09-15T18:16:14.864Z,34.00
2022-09-15T18:18:47.567Z,35.00
2022-09-15T18:21:29.021Z,35.00
2022-09-15T18:23:56.935Z,33.00
2022-09-15T18:26:26.548Z,35.50
2022-09-15T18:29:01.069Z,34.00
2022-09-15T18:31:28.009Z,32.00
2022-09-15T18:33:55.190Z,35.25
2022-09-15T18:36:22.347Z,39.50
2022-09-15T18:38:49.181Z,36.00
2022-09-15T18:41:42.105Z,33.00
2022-09-15T18:44:09.011Z,36.00
2022-09-15T18:46:38.125Z,36.00
2022-09-15T18:49:05.391Z,38.50
2022-09-15T18:51:50.582Z,37.00
2022-09-15T18:54:18.401Z,37.00
2022-09-15T18:56:45.381Z,31.00
2022-09-15T18:59:15.485Z,30.00
2022-09-15T19:01:46.934Z,27.25
2022-09-15T19:04:13.878Z,32.75
2022-09-15T19:06:40.671Z,30.75
2022-09-15T19:09:07.503Z,26.00
2022-09-15T19:11:34.298Z,32.00
2022-09-15T19:14:01.091Z,31.00
2022-09-15T19:16:46.624Z,27.00
2022-09-15T19:19:14.895Z,30.00
2022-09-15T19:21:57.994Z,29.00
2022-09-15T19:24:25.139Z,33.25
2022-09-15T19:26:52.224Z,34.00
2022-09-15T19:29:19.321Z,29.00
2022-09-15T19:31:46.094Z,31.75
2022-09-15T19:34:12.956Z,30.50
2022-09-15T19:36:39.858Z,26.00
2022-09-15T19:39:06.734Z,31.50
2022-09-15T19:41:33.536Z,33.00
2022-09-15T19:44:01.564Z,31.75
2022-09-15T19:46:28.463Z,26.00
2022-09-15T19:48:55.578Z,31.25
2022-09-15T19:51:22.701Z,35.00
2022-09-15T19:53:52.825Z,33.25
2022-09-15T19:56:21.498Z,28.50
2022-09-15T19:59:06.625Z,30.00
2022-09-15T20:01:33.775Z,34.00
2022-09-15T20:04:00.569Z,35.00
2022-09-15T20:06:32.137Z,36.00
2022-09-15T20:08:59.483Z,32.00
2022-09-15T20:11:27.676Z,32.75
2022-09-15T20:13:54.859Z,34.50
2022-09-15T20:16:23.352Z,36.75
2022-09-15T20:18:52.483Z,37.75
2022-09-15T20:21:39.095Z,33.00
2022-09-15T20:24:10.410Z,30.00
2022-09-15T20:26:57.551Z,30.00
2022-09-15T20:29:24.499Z,31.00
2022-09-15T20:32:14.355Z,36.50
2022-09-15T20:34:41.377Z,33.00
2022-09-15T20:37:08.161Z,36.25
2022-09-15T20:39:35.009Z,38.75
2022-09-15T20:42:01.901Z,35.25
2022-09-15T20:44:28.719Z,33.25
2022-09-15T20:46:55.449Z,30.50
2022-09-15T20:49:22.342Z,31.00
2022-09-15T20:51:49.196Z,33.00
2022-09-15T20:54:16.049Z,33.00
2022-09-15T20:56:56.023Z,32.75
2022-09-15T20:59:22.985Z,32.50
2022-09-15T21:01:49.756Z,31.00
2022-09-15T21:04:16.830Z,37.50
2022-09-15T21:06:43.639Z,37.00
2022-09-15T21:09:10.655Z,38.00
2022-09-15T21:11:38.494Z,41.50
2022-09-15T21:14:10.537Z,42.00
2022-09-15T21:16:37.614Z,39.25
2022-09-15T21:19:04.973Z,37.00
2022-09-15T21:21:33.130Z,37.00
2022-09-15T21:24:05.871Z,35.00
2022-09-15T21:26:37.983Z,35.00
2022-09-15T21:29:04.796Z,37.00
2022-09-15T21:31:32.853Z,39.50
2022-09-15T21:33:59.842Z,34.50
2022-09-15T21:36:29.501Z,35.25
2022-09-15T21:38:58.422Z,35.25
2022-09-15T21:41:28.201Z,37.75
2022-09-15T21:44:01.106Z,34.75
2022-09-15T21:46:31.671Z,34.75
2022-09-15T21:49:00.204Z,35.75
2022-09-15T21:51:29.038Z,35.00
2022-09-15T21:53:58.071Z,33.25
2022-09-15T21:56:25.863Z,31.00
2022-09-15T21:58:52.727Z,31.00
2022-09-15T22:01:21.191Z,31.50
2022-09-15T22:03:56.372Z,31.00
2022-09-15T22:06:26.228Z,34.75
2022-09-15T22:09:00.041Z,37.00
2022-09-15T22:11:27.626Z,34.00
2022-09-15T22:13:54.591Z,37.50
2022-09-15T22:16:24.218Z,39.00
2022-09-15T22:18:51.703Z,35.00
2022-09-15T22:21:19.497Z,37.00
2022-09-15T22:23:47.774Z,34.00
2022-09-15T22:26:18.539Z,34.75
2022-09-15T22:28:46.162Z,36.00
2022-09-15T22:31:16.595Z,35.50
2022-09-15T22:33:44.374Z,33.50
2022-09-15T22:36:16.992Z,31.00
2022-09-15T22:38:44.106Z,32.00
2022-09-15T22:41:16.490Z,31.00
2022-09-15T22:43:45.058Z,31.00
2022-09-15T22:46:12.126Z,34.00
2022-09-15T22:48:43.267Z,34.50
2022-09-15T22:51:11.502Z,32.00
2022-09-15T22:53:38.445Z,32.25
2022-09-15T22:56:09.016Z,36.00
2022-09-15T22:58:37.508Z,39.00
2022-09-15T23:01:32.304Z,33.25
2022-09-15T23:04:01.982Z,39.00
2022-09-15T23:06:31.959Z,34.50
2022-09-15T23:09:01.410Z,38.00
2022-09-15T23:11:29.629Z,40.25
2022-09-15T23:13:56.595Z,35.00
2022-09-15T23:16:29.206Z,34.00
2022-09-15T23:18:56.299Z,34.75
2022-09-15T23:21:28.699Z,35.00
2022-09-15T23:23:56.034Z,34.00
2022-09-15T23:26:24.133Z,36.00
2022-09-15T23:28:51.878Z,37.00
2022-09-15T23:31:19.951Z,38.50
2022-09-15T23:33:47.575Z,39.00
2022-09-15T23:36:16.726Z,40.00
2022-09-15T23:38:45.009Z,37.00
2022-09-15T23:41:13.020Z,37.50
2022-09-15T23:43:40.118Z,39.50
2022-09-15T23:46:06.987Z,36.75
2022-09-15T23:48:34.013Z,33.00
2022-09-15T23:51:01.012Z,32.25
2022-09-15T23:53:28.898Z,35.25
2022-09-15T23:55:56.662Z,32.00
2022-09-15T23:58:23.953Z,34.00
